sensor_id;sensor_type;location;lat;lon;timestamp;P1;durP1;ratioP1;P2;durP2;ratioP2
55330;SDS011;58851;42.984;20.336;2023-01-19T00:02:19;37.83;;;10.13;;
55330;SDS011;58851;42.984;20.336;2023-01-19T00:04:44;39.85;;;12.98;;
55330;SDS011;58851;42.984;20.336;2023-01-19T00:07:10;29.67;;;7.47;;
55330;SDS011;58851;42.984;20.336;2023-01-19T00:09:36;32.55;;;7.97;;
55330;SDS011;58851;42.984;20.336;2023-01-19T00:12:05;38.67;;;17.10;;
55330;SDS011;58851;42.984;20.336;2023-01-19T00:14:31;29.13;;;11.20;;
55330;SDS011;58851;42.984;20.336;2023-01-19T00:16:57;39.85;;;17.38;;
55330;SDS011;58851;42.984;20.336;2023-01-19T00:19:23;47.65;;;19.95;;
55330;SDS011;58851;42.984;20.336;2023-01-19T00:21:49;70.60;;;36.85;;
55330;SDS011;58851;42.984;20.336;2023-01-19T00:24:14;37.80;;;11.15;;
55330;SDS011;58851;42.984;20.336;2023-01-19T00:26:40;51.28;;;27.30;;
55330;SDS011;58851;42.984;20.336;2023-01-19T00:29:07;49.80;;;25.38;;
55330;SDS011;58851;42.984;20.336;2023-01-19T00:31:34;47.42;;;20.42;;
55330;SDS011;58851;42.984;20.336;2023-01-19T00:34:00;75.25;;;38.45;;
55330;SDS011;58851;42.984;20.336;2023-01-19T00:36:26;55.63;;;30.67;;
55330;SDS011;58851;42.984;20.336;2023-01-19T00:38:52;64.20;;;31.88;;
55330;SDS011;58851;42.984;20.336;2023-01-19T00:41:18;69.63;;;32.17;;
55330;SDS011;58851;42.984;20.336;2023-01-19T00:44:04;76.70;;;34.80;;
55330;SDS011;58851;42.984;20.336;2023-01-19T00:46:30;46.38;;;22.65;;
55330;SDS011;58851;42.984;20.336;2023-01-19T00:48:55;45.70;;;25.48;;
55330;SDS011;58851;42.984;20.336;2023-01-19T00:51:21;46.58;;;22.27;;
55330;SDS011;58851;42.984;20.336;2023-01-19T00:53:47;41.05;;;22.00;;
55330;SDS011;58851;42.984;20.336;2023-01-19T00:56:13;49.75;;;24.77;;
55330;SDS011;58851;42.984;20.336;2023-01-19T00:58:38;45.22;;;21.10;;
55330;SDS011;58851;42.984;20.336;2023-01-19T01:01:04;44.03;;;21.20;;
55330;SDS011;58851;42.984;20.336;2023-01-19T01:03:30;45.35;;;21.55;;
55330;SDS011;58851;42.984;20.336;2023-01-19T01:05:56;42.60;;;23.55;;
55330;SDS011;58851;42.984;20.336;2023-01-19T01:08:22;49.67;;;26.27;;
55330;SDS011;58851;42.984;20.336;2023-01-19T01:10:49;53.90;;;30.13;;
55330;SDS011;58851;42.984;20.336;2023-01-19T01:13:15;65.57;;;35.92;;
55330;SDS011;58851;42.984;20.336;2023-01-19T01:15:41;50.55;;;31.55;;
55330;SDS011;58851;42.984;20.336;2023-01-19T01:18:07;48.85;;;26.00;;
55330;SDS011;58851;42.984;20.336;2023-01-19T01:20:34;44.78;;;27.02;;
55330;SDS011;58851;42.984;20.336;2023-01-19T01:23:01;73.38;;;37.40;;
55330;SDS011;58851;42.984;20.336;2023-01-19T01:25:27;54.75;;;29.42;;
55330;SDS011;58851;42.984;20.336;2023-01-19T01:27:55;34.50;;;19.00;;
55330;SDS011;58851;42.984;20.336;2023-01-19T01:30:21;44.53;;;23.88;;
55330;SDS011;58851;42.984;20.336;2023-01-19T01:32:47;56.10;;;29.20;;
55330;SDS011;58851;42.984;20.336;2023-01-19T01:35:13;59.33;;;28.77;;
55330;SDS011;58851;42.984;20.336;2023-01-19T01:37:39;41.75;;;23.05;;
55330;SDS011;58851;42.984;20.336;2023-01-19T01:40:07;38.83;;;17.60;;
55330;SDS011;58851;42.984;20.336;2023-01-19T01:42:35;40.63;;;18.25;;
55330;SDS011;58851;42.984;20.336;2023-01-19T01:45:02;34.90;;;16.83;;
55330;SDS011;58851;42.984;20.336;2023-01-19T01:47:33;44.70;;;24.77;;
55330;SDS011;58851;42.984;20.336;2023-01-19T01:52:35;50.25;;;28.63;;
55330;SDS011;58851;42.984;20.336;2023-01-19T01:55:07;43.67;;;25.10;;
55330;SDS011;58851;42.984;20.336;2023-01-19T01:57:35;62.17;;;35.33;;
55330;SDS011;58851;42.984;20.336;2023-01-19T02:00:03;61.63;;;35.58;;
55330;SDS011;58851;42.984;20.336;2023-01-19T02:02:30;57.72;;;34.53;;
55330;SDS011;58851;42.984;20.336;2023-01-19T02:05:19;58.17;;;36.83;;
55330;SDS011;58851;42.984;20.336;2023-01-19T02:10:57;60.90;;;37.92;;
55330;SDS011;58851;42.984;20.336;2023-01-19T02:13:43;58.42;;;34.30;;
55330;SDS011;58851;42.984;20.336;2023-01-19T02:16:11;66.00;;;41.28;;
55330;SDS011;58851;42.984;20.336;2023-01-19T02:18:37;64.22;;;35.53;;
55330;SDS011;58851;42.984;20.336;2023-01-19T02:23:45;73.80;;;46.25;;
55330;SDS011;58851;42.984;20.336;2023-01-19T02:26:40;93.43;;;62.53;;
55330;SDS011;58851;42.984;20.336;2023-01-19T02:29:14;83.45;;;56.35;;
55330;SDS011;58851;42.984;20.336;2023-01-19T02:31:42;64.63;;;40.97;;
55330;SDS011;58851;42.984;20.336;2023-01-19T02:34:10;59.63;;;33.70;;
55330;SDS011;58851;42.984;20.336;2023-01-19T02:36:44;58.33;;;30.95;;
55330;SDS011;58851;42.984;20.336;2023-01-19T02:39:47;43.65;;;22.90;;
55330;SDS011;58851;42.984;20.336;2023-01-19T02:42:20;43.67;;;24.65;;
55330;SDS011;58851;42.984;20.336;2023-01-19T02:44:59;45.65;;;25.77;;
55330;SDS011;58851;42.984;20.336;2023-01-19T02:47:36;42.10;;;23.73;;
55330;SDS011;58851;42.984;20.336;2023-01-19T02:55:40;72.32;;;39.75;;
55330;SDS011;58851;42.984;20.336;2023-01-19T03:00:48;92.97;;;56.63;;
55330;SDS011;58851;42.984;20.336;2023-01-19T03:06:23;29.95;;;18.10;;
55330;SDS011;58851;42.984;20.336;2023-01-19T03:09:13;20.45;;;12.02;;
55330;SDS011;58851;42.984;20.336;2023-01-19T03:12:46;8.57;;;4.00;;
55330;SDS011;58851;42.984;20.336;2023-01-19T03:14:54;8.48;;;4.00;;
55330;SDS011;58851;42.984;20.336;2023-01-19T03:17:25;10.40;;;4.00;;
55330;SDS011;58851;42.984;20.336;2023-01-19T03:19:54;8.90;;;3.13;;
55330;SDS011;58851;42.984;20.336;2023-01-19T03:22:21;6.70;;;4.43;;
55330;SDS011;58851;42.984;20.336;2023-01-19T03:24:53;8.75;;;3.58;;
55330;SDS011;58851;42.984;20.336;2023-01-19T03:27:32;8.60;;;3.63;;
55330;SDS011;58851;42.984;20.336;2023-01-19T03:30:12;5.38;;;3.00;;
55330;SDS011;58851;42.984;20.336;2023-01-19T03:32:52;5.93;;;2.00;;
55330;SDS011;58851;42.984;20.336;2023-01-19T03:35:42;4.35;;;2.60;;
55330;SDS011;58851;42.984;20.336;2023-01-19T03:38:17;5.20;;;2.75;;
55330;SDS011;58851;42.984;20.336;2023-01-19T03:40:48;11.85;;;3.88;;
55330;SDS011;58851;42.984;20.336;2023-01-19T03:43:16;6.68;;;3.50;;
55330;SDS011;58851;42.984;20.336;2023-01-19T03:45:42;9.00;;;4.85;;
55330;SDS011;58851;42.984;20.336;2023-01-19T03:48:09;14.65;;;7.28;;
55330;SDS011;58851;42.984;20.336;2023-01-19T03:50:35;9.55;;;6.70;;
55330;SDS011;58851;42.984;20.336;2023-01-19T03:53:04;8.32;;;5.57;;
55330;SDS011;58851;42.984;20.336;2023-01-19T03:55:33;10.10;;;6.28;;
55330;SDS011;58851;42.984;20.336;2023-01-19T03:57:59;13.82;;;8.80;;
55330;SDS011;58851;42.984;20.336;2023-01-19T04:00:25;26.30;;;14.98;;
55330;SDS011;58851;42.984;20.336;2023-01-19T04:02:51;44.35;;;27.40;;
55330;SDS011;58851;42.984;20.336;2023-01-19T04:05:16;32.53;;;19.45;;
55330;SDS011;58851;42.984;20.336;2023-01-19T04:07:43;36.15;;;20.58;;
55330;SDS011;58851;42.984;20.336;2023-01-19T04:10:09;36.78;;;27.55;;
55330;SDS011;58851;42.984;20.336;2023-01-19T04:12:37;42.65;;;27.90;;
55330;SDS011;58851;42.984;20.336;2023-01-19T04:15:04;36.00;;;27.15;;
55330;SDS011;58851;42.984;20.336;2023-01-19T04:17:31;23.90;;;19.17;;
55330;SDS011;58851;42.984;20.336;2023-01-19T04:19:56;21.77;;;14.40;;
55330;SDS011;58851;42.984;20.336;2023-01-19T04:22:22;17.88;;;13.48;;
55330;SDS011;58851;42.984;20.336;2023-01-19T04:24:48;19.88;;;14.60;;
55330;SDS011;58851;42.984;20.336;2023-01-19T04:27:13;21.70;;;16.50;;
55330;SDS011;58851;42.984;20.336;2023-01-19T04:29:40;36.55;;;23.48;;
55330;SDS011;58851;42.984;20.336;2023-01-19T04:32:06;63.25;;;37.55;;
55330;SDS011;58851;42.984;20.336;2023-01-19T04:34:32;55.67;;;36.78;;
55330;SDS011;58851;42.984;20.336;2023-01-19T04:36:58;63.17;;;40.22;;
55330;SDS011;58851;42.984;20.336;2023-01-19T04:39:24;38.67;;;27.80;;
55330;SDS011;58851;42.984;20.336;2023-01-19T04:41:50;34.72;;;24.00;;
55330;SDS011;58851;42.984;20.336;2023-01-19T04:44:16;22.90;;;15.88;;
55330;SDS011;58851;42.984;20.336;2023-01-19T04:46:42;27.35;;;17.27;;
55330;SDS011;58851;42.984;20.336;2023-01-19T04:49:08;24.25;;;15.98;;
55330;SDS011;58851;42.984;20.336;2023-01-19T04:51:34;31.80;;;16.17;;
55330;SDS011;58851;42.984;20.336;2023-01-19T04:54:00;24.30;;;17.30;;
55330;SDS011;58851;42.984;20.336;2023-01-19T04:56:27;53.78;;;34.38;;
55330;SDS011;58851;42.984;20.336;2023-01-19T04:58:53;48.47;;;30.08;;
55330;SDS011;58851;42.984;20.336;2023-01-19T05:01:19;34.25;;;23.02;;
55330;SDS011;58851;42.984;20.336;2023-01-19T05:03:44;33.20;;;21.95;;
55330;SDS011;58851;42.984;20.336;2023-01-19T05:06:10;38.10;;;27.55;;
55330;SDS011;58851;42.984;20.336;2023-01-19T05:08:37;45.20;;;32.13;;
55330;SDS011;58851;42.984;20.336;2023-01-19T05:11:03;47.47;;;30.70;;
55330;SDS011;58851;42.984;20.336;2023-01-19T05:13:29;35.97;;;27.98;;
55330;SDS011;58851;42.984;20.336;2023-01-19T05:15:55;32.20;;;27.42;;
55330;SDS011;58851;42.984;20.336;2023-01-19T05:18:20;62.75;;;41.10;;
55330;SDS011;58851;42.984;20.336;2023-01-19T05:20:46;41.22;;;24.63;;
55330;SDS011;58851;42.984;20.336;2023-01-19T05:23:12;44.65;;;27.48;;
55330;SDS011;58851;42.984;20.336;2023-01-19T05:25:38;38.42;;;22.23;;
55330;SDS011;58851;42.984;20.336;2023-01-19T05:28:03;25.70;;;16.55;;
55330;SDS011;58851;42.984;20.336;2023-01-19T05:30:29;12.98;;;9.75;;
55330;SDS011;58851;42.984;20.336;2023-01-19T05:32:55;10.75;;;9.20;;
55330;SDS011;58851;42.984;20.336;2023-01-19T05:35:20;12.95;;;9.38;;
55330;SDS011;58851;42.984;20.336;2023-01-19T05:37:47;21.35;;;15.82;;
55330;SDS011;58851;42.984;20.336;2023-01-19T05:40:13;62.03;;;38.72;;
55330;SDS011;58851;42.984;20.336;2023-01-19T05:42:38;50.70;;;33.45;;
55330;SDS011;58851;42.984;20.336;2023-01-19T05:45:04;56.45;;;34.63;;
55330;SDS011;58851;42.984;20.336;2023-01-19T05:47:30;44.50;;;29.77;;
55330;SDS011;58851;42.984;20.336;2023-01-19T05:49:56;34.55;;;23.40;;
55330;SDS011;58851;42.984;20.336;2023-01-19T05:52:22;34.05;;;23.25;;
55330;SDS011;58851;42.984;20.336;2023-01-19T05:54:51;34.72;;;24.77;;
55330;SDS011;58851;42.984;20.336;2023-01-19T05:57:19;30.45;;;19.55;;
55330;SDS011;58851;42.984;20.336;2023-01-19T05:59:45;18.63;;;14.05;;
55330;SDS011;58851;42.984;20.336;2023-01-19T06:02:11;26.92;;;16.80;;
55330;SDS011;58851;42.984;20.336;2023-01-19T06:04:36;39.80;;;26.40;;
55330;SDS011;58851;42.984;20.336;2023-01-19T06:07:03;49.05;;;33.10;;
55330;SDS011;58851;42.984;20.336;2023-01-19T06:09:30;47.42;;;32.88;;
55330;SDS011;58851;42.984;20.336;2023-01-19T06:11:56;45.70;;;32.72;;
55330;SDS011;58851;42.984;20.336;2023-01-19T06:14:23;40.58;;;30.88;;
55330;SDS011;58851;42.984;20.336;2023-01-19T06:16:50;41.83;;;31.60;;
55330;SDS011;58851;42.984;20.336;2023-01-19T06:19:16;31.05;;;24.23;;
55330;SDS011;58851;42.984;20.336;2023-01-19T06:21:42;24.60;;;17.08;;
55330;SDS011;58851;42.984;20.336;2023-01-19T06:24:13;104.10;;;59.40;;
55330;SDS011;58851;42.984;20.336;2023-01-19T06:26:39;37.58;;;24.70;;
55330;SDS011;58851;42.984;20.336;2023-01-19T06:29:08;55.95;;;35.22;;
55330;SDS011;58851;42.984;20.336;2023-01-19T06:31:37;72.20;;;38.97;;
55330;SDS011;58851;42.984;20.336;2023-01-19T06:34:02;54.63;;;33.83;;
55330;SDS011;58851;42.984;20.336;2023-01-19T06:36:28;37.88;;;26.42;;
55330;SDS011;58851;42.984;20.336;2023-01-19T06:38:54;41.40;;;27.00;;
55330;SDS011;58851;42.984;20.336;2023-01-19T06:41:19;66.50;;;41.13;;
55330;SDS011;58851;42.984;20.336;2023-01-19T06:43:45;98.43;;;62.88;;
55330;SDS011;58851;42.984;20.336;2023-01-19T06:46:11;71.13;;;46.70;;
55330;SDS011;58851;42.984;20.336;2023-01-19T06:48:37;62.53;;;45.22;;
55330;SDS011;58851;42.984;20.336;2023-01-19T06:51:03;74.43;;;47.75;;
55330;SDS011;58851;42.984;20.336;2023-01-19T06:53:31;77.20;;;47.17;;
55330;SDS011;58851;42.984;20.336;2023-01-19T06:56:00;56.95;;;38.35;;
55330;SDS011;58851;42.984;20.336;2023-01-19T06:58:27;70.25;;;48.20;;
55330;SDS011;58851;42.984;20.336;2023-01-19T07:00:53;14.15;;;9.70;;
55330;SDS011;58851;42.984;20.336;2023-01-19T07:03:20;15.73;;;11.63;;
55330;SDS011;58851;42.984;20.336;2023-01-19T07:05:50;11.82;;;8.45;;
55330;SDS011;58851;42.984;20.336;2023-01-19T07:08:16;31.13;;;19.60;;
55330;SDS011;58851;42.984;20.336;2023-01-19T07:10:42;28.73;;;18.40;;
55330;SDS011;58851;42.984;20.336;2023-01-19T07:13:07;29.58;;;20.65;;
55330;SDS011;58851;42.984;20.336;2023-01-19T07:15:33;35.92;;;24.40;;
55330;SDS011;58851;42.984;20.336;2023-01-19T07:17:59;44.42;;;30.55;;
55330;SDS011;58851;42.984;20.336;2023-01-19T07:20:30;40.30;;;26.58;;
55330;SDS011;58851;42.984;20.336;2023-01-19T07:22:55;23.13;;;17.45;;
55330;SDS011;58851;42.984;20.336;2023-01-19T07:25:21;24.83;;;17.98;;
55330;SDS011;58851;42.984;20.336;2023-01-19T07:27:47;32.30;;;24.58;;
55330;SDS011;58851;42.984;20.336;2023-01-19T07:30:13;30.60;;;22.95;;
55330;SDS011;58851;42.984;20.336;2023-01-19T07:32:42;45.92;;;32.72;;
55330;SDS011;58851;42.984;20.336;2023-01-19T07:35:08;51.38;;;40.42;;
55330;SDS011;58851;42.984;20.336;2023-01-19T07:37:34;92.15;;;64.72;;
55330;SDS011;58851;42.984;20.336;2023-01-19T07:40:00;233.70;;;146.50;;
55330;SDS011;58851;42.984;20.336;2023-01-19T07:42:25;72.97;;;46.97;;
55330;SDS011;58851;42.984;20.336;2023-01-19T07:44:51;50.67;;;36.15;;
55330;SDS011;58851;42.984;20.336;2023-01-19T07:47:17;44.83;;;30.85;;
55330;SDS011;58851;42.984;20.336;2023-01-19T07:49:43;64.00;;;40.10;;
55330;SDS011;58851;42.984;20.336;2023-01-19T07:52:09;56.92;;;38.88;;
55330;SDS011;58851;42.984;20.336;2023-01-19T07:54:35;47.50;;;33.65;;
55330;SDS011;58851;42.984;20.336;2023-01-19T07:57:00;62.35;;;44.85;;
55330;SDS011;58851;42.984;20.336;2023-01-19T07:59:26;47.10;;;32.88;;
55330;SDS011;58851;42.984;20.336;2023-01-19T08:01:54;74.57;;;52.72;;
55330;SDS011;58851;42.984;20.336;2023-01-19T08:04:22;94.63;;;63.25;;
55330;SDS011;58851;42.984;20.336;2023-01-19T08:06:47;49.67;;;35.10;;
55330;SDS011;58851;42.984;20.336;2023-01-19T08:09:13;17.42;;;13.80;;
55330;SDS011;58851;42.984;20.336;2023-01-19T08:11:39;14.30;;;9.15;;
55330;SDS011;58851;42.984;20.336;2023-01-19T08:14:05;16.23;;;11.85;;
55330;SDS011;58851;42.984;20.336;2023-01-19T08:16:31;17.52;;;12.27;;
55330;SDS011;58851;42.984;20.336;2023-01-19T08:18:57;21.80;;;16.35;;
55330;SDS011;58851;42.984;20.336;2023-01-19T08:21:22;25.67;;;17.80;;
55330;SDS011;58851;42.984;20.336;2023-01-19T08:23:55;40.78;;;25.58;;
55330;SDS011;58851;42.984;20.336;2023-01-19T08:26:28;63.00;;;41.85;;
55330;SDS011;58851;42.984;20.336;2023-01-19T08:28:56;80.15;;;54.08;;
55330;SDS011;58851;42.984;20.336;2023-01-19T08:31:23;77.85;;;56.13;;
55330;SDS011;58851;42.984;20.336;2023-01-19T08:33:49;132.82;;;93.43;;
55330;SDS011;58851;42.984;20.336;2023-01-19T08:36:15;104.32;;;73.20;;
55330;SDS011;58851;42.984;20.336;2023-01-19T08:38:43;51.40;;;40.22;;
55330;SDS011;58851;42.984;20.336;2023-01-19T08:41:09;42.15;;;31.85;;
55330;SDS011;58851;42.984;20.336;2023-01-19T08:43:35;34.92;;;26.58;;
55330;SDS011;58851;42.984;20.336;2023-01-19T08:46:02;29.80;;;23.08;;
55330;SDS011;58851;42.984;20.336;2023-01-19T08:48:28;13.88;;;10.43;;
55330;SDS011;58851;42.984;20.336;2023-01-19T08:50:54;17.40;;;11.73;;
55330;SDS011;58851;42.984;20.336;2023-01-19T08:53:20;25.13;;;19.45;;
55330;SDS011;58851;42.984;20.336;2023-01-19T08:55:47;35.92;;;25.10;;
55330;SDS011;58851;42.984;20.336;2023-01-19T08:58:14;64.15;;;45.08;;
55330;SDS011;58851;42.984;20.336;2023-01-19T09:00:40;50.65;;;33.97;;
55330;SDS011;58851;42.984;20.336;2023-01-19T09:03:07;57.08;;;39.30;;
55330;SDS011;58851;42.984;20.336;2023-01-19T09:05:35;67.68;;;48.67;;
55330;SDS011;58851;42.984;20.336;2023-01-19T09:08:06;62.40;;;43.90;;
55330;SDS011;58851;42.984;20.336;2023-01-19T09:10:33;175.40;;;102.35;;
55330;SDS011;58851;42.984;20.336;2023-01-19T09:13:05;95.60;;;59.60;;
55330;SDS011;58851;42.984;20.336;2023-01-19T09:15:34;69.93;;;41.60;;
55330;SDS011;58851;42.984;20.336;2023-01-19T09:18:02;82.55;;;55.35;;
55330;SDS011;58851;42.984;20.336;2023-01-19T09:20:34;67.05;;;46.20;;
55330;SDS011;58851;42.984;20.336;2023-01-19T09:23:02;114.47;;;72.93;;
55330;SDS011;58851;42.984;20.336;2023-01-19T09:25:28;86.38;;;55.30;;
55330;SDS011;58851;42.984;20.336;2023-01-19T09:27:54;75.28;;;50.03;;
55330;SDS011;58851;42.984;20.336;2023-01-19T09:30:20;77.22;;;53.75;;
55330;SDS011;58851;42.984;20.336;2023-01-19T09:32:46;75.70;;;54.45;;
55330;SDS011;58851;42.984;20.336;2023-01-19T09:35:11;57.92;;;42.47;;
55330;SDS011;58851;42.984;20.336;2023-01-19T09:37:37;52.58;;;36.35;;
55330;SDS011;58851;42.984;20.336;2023-01-19T09:40:04;41.90;;;32.10;;
55330;SDS011;58851;42.984;20.336;2023-01-19T09:45:33;27.60;;;20.67;;
55330;SDS011;58851;42.984;20.336;2023-01-19T09:48:04;27.35;;;22.13;;
55330;SDS011;58851;42.984;20.336;2023-01-19T09:50:45;47.00;;;33.90;;
55330;SDS011;58851;42.984;20.336;2023-01-19T09:53:13;61.92;;;44.40;;
55330;SDS011;58851;42.984;20.336;2023-01-19T09:55:45;150.07;;;111.20;;
55330;SDS011;58851;42.984;20.336;2023-01-19T09:58:12;137.65;;;98.40;;
55330;SDS011;58851;42.984;20.336;2023-01-19T10:00:42;145.90;;;98.70;;
55330;SDS011;58851;42.984;20.336;2023-01-19T10:03:15;197.27;;;133.63;;
55330;SDS011;58851;42.984;20.336;2023-01-19T10:05:43;160.55;;;116.95;;
55330;SDS011;58851;42.984;20.336;2023-01-19T10:08:27;114.22;;;80.15;;
55330;SDS011;58851;42.984;20.336;2023-01-19T10:11:01;96.78;;;59.72;;
55330;SDS011;58851;42.984;20.336;2023-01-19T10:13:35;107.45;;;68.95;;
55330;SDS011;58851;42.984;20.336;2023-01-19T10:19:20;119.30;;;77.38;;
55330;SDS011;58851;42.984;20.336;2023-01-19T10:21:51;53.35;;;36.80;;
55330;SDS011;58851;42.984;20.336;2023-01-19T10:24:36;37.47;;;24.85;;
55330;SDS011;58851;42.984;20.336;2023-01-19T10:27:07;60.53;;;36.22;;
55330;SDS011;58851;42.984;20.336;2023-01-19T10:29:39;81.93;;;46.72;;
55330;SDS011;58851;42.984;20.336;2023-01-19T10:34:41;47.83;;;27.23;;
55330;SDS011;58851;42.984;20.336;2023-01-19T10:39:46;37.03;;;24.65;;
55330;SDS011;58851;42.984;20.336;2023-01-19T10:42:18;65.43;;;44.58;;
55330;SDS011;58851;42.984;20.336;2023-01-19T10:44:44;68.05;;;51.38;;
55330;SDS011;58851;42.984;20.336;2023-01-19T10:47:19;70.70;;;55.03;;
55330;SDS011;58851;42.984;20.336;2023-01-19T10:49:49;149.82;;;97.90;;
55330;SDS011;58851;42.984;20.336;2023-01-19T10:52:23;186.13;;;118.32;;
55330;SDS011;58851;42.984;20.336;2023-01-19T10:54:58;118.70;;;81.85;;
55330;SDS011;58851;42.984;20.336;2023-01-19T10:57:27;100.30;;;65.65;;
55330;SDS011;58851;42.984;20.336;2023-01-19T11:00:05;88.88;;;62.53;;
55330;SDS011;58851;42.984;20.336;2023-01-19T11:02:51;64.28;;;47.05;;
55330;SDS011;58851;42.984;20.336;2023-01-19T11:05:24;52.85;;;37.00;;
55330;SDS011;58851;42.984;20.336;2023-01-19T11:07:52;80.53;;;53.35;;
55330;SDS011;58851;42.984;20.336;2023-01-19T11:10:27;126.90;;;95.38;;
55330;SDS011;58851;42.984;20.336;2023-01-19T11:16:02;112.88;;;80.43;;
55330;SDS011;58851;42.984;20.336;2023-01-19T11:20:53;129.25;;;96.65;;
55330;SDS011;58851;42.984;20.336;2023-01-19T11:23:24;143.55;;;113.00;;
55330;SDS011;58851;42.984;20.336;2023-01-19T11:25:57;123.38;;;87.03;;
55330;SDS011;58851;42.984;20.336;2023-01-19T11:31:15;63.47;;;49.23;;
55330;SDS011;58851;42.984;20.336;2023-01-19T11:36:16;69.40;;;52.25;;
55330;SDS011;58851;42.984;20.336;2023-01-19T11:38:45;46.28;;;35.95;;
55330;SDS011;58851;42.984;20.336;2023-01-19T11:41:35;29.75;;;22.85;;
55330;SDS011;58851;42.984;20.336;2023-01-19T11:44:18;34.38;;;25.73;;
55330;SDS011;58851;42.984;20.336;2023-01-19T11:46:58;38.40;;;29.17;;
55330;SDS011;58851;42.984;20.336;2023-01-19T11:49:37;67.03;;;50.55;;
55330;SDS011;58851;42.984;20.336;2023-01-19T11:57:46;40.22;;;31.77;;
55330;SDS011;58851;42.984;20.336;2023-01-19T12:02:53;41.17;;;33.40;;
55330;SDS011;58851;42.984;20.336;2023-01-19T12:05:23;59.67;;;43.92;;
55330;SDS011;58851;42.984;20.336;2023-01-19T12:07:53;123.63;;;73.55;;
55330;SDS011;58851;42.984;20.336;2023-01-19T12:10:23;140.27;;;82.90;;
55330;SDS011;58851;42.984;20.336;2023-01-19T12:12:56;97.95;;;62.50;;
55330;SDS011;58851;42.984;20.336;2023-01-19T12:15:30;101.10;;;60.78;;
55330;SDS011;58851;42.984;20.336;2023-01-19T12:18:09;37.35;;;27.48;;
55330;SDS011;58851;42.984;20.336;2023-01-19T12:20:49;46.13;;;33.35;;
55330;SDS011;58851;42.984;20.336;2023-01-19T12:26:01;47.58;;;35.72;;
55330;SDS011;58851;42.984;20.336;2023-01-19T12:29:05;22.58;;;14.65;;
55330;SDS011;58851;42.984;20.336;2023-01-19T12:31:36;44.75;;;27.38;;
55330;SDS011;58851;42.984;20.336;2023-01-19T12:36:59;14.77;;;13.00;;
55330;SDS011;58851;42.984;20.336;2023-01-19T12:39:30;10.25;;;8.25;;
55330;SDS011;58851;42.984;20.336;2023-01-19T12:44:37;23.70;;;16.45;;
55330;SDS011;58851;42.984;20.336;2023-01-19T12:55:01;8.70;;;6.00;;
55330;SDS011;58851;42.984;20.336;2023-01-19T12:57:31;10.50;;;8.40;;
55330;SDS011;58851;42.984;20.336;2023-01-19T13:00:03;21.88;;;15.98;;
55330;SDS011;58851;42.984;20.336;2023-01-19T13:13:18;31.23;;;22.42;;
55330;SDS011;58851;42.984;20.336;2023-01-19T13:21:13;52.33;;;38.15;;
55330;SDS011;58851;42.984;20.336;2023-01-19T13:23:55;31.90;;;24.10;;
55330;SDS011;58851;42.984;20.336;2023-01-19T13:26:23;27.75;;;20.60;;
55330;SDS011;58851;42.984;20.336;2023-01-19T13:28:56;19.05;;;15.57;;
55330;SDS011;58851;42.984;20.336;2023-01-19T13:31:33;18.52;;;15.30;;
55330;SDS011;58851;42.984;20.336;2023-01-19T13:34:01;25.92;;;19.85;;
55330;SDS011;58851;42.984;20.336;2023-01-19T13:36:28;19.80;;;15.32;;
55330;SDS011;58851;42.984;20.336;2023-01-19T13:39:00;28.27;;;22.17;;
55330;SDS011;58851;42.984;20.336;2023-01-19T13:41:35;36.95;;;27.00;;
55330;SDS011;58851;42.984;20.336;2023-01-19T13:44:12;31.95;;;24.05;;
55330;SDS011;58851;42.984;20.336;2023-01-19T13:46:44;31.83;;;23.75;;
55330;SDS011;58851;42.984;20.336;2023-01-19T13:49:20;38.15;;;27.00;;
55330;SDS011;58851;42.984;20.336;2023-01-19T13:54:49;39.63;;;30.00;;
55330;SDS011;58851;42.984;20.336;2023-01-19T13:57:59;45.50;;;33.45;;
55330;SDS011;58851;42.984;20.336;2023-01-19T14:02:49;67.78;;;49.63;;
55330;SDS011;58851;42.984;20.336;2023-01-19T14:05:22;86.93;;;58.60;;
55330;SDS011;58851;42.984;20.336;2023-01-19T14:10:40;145.25;;;99.10;;
55330;SDS011;58851;42.984;20.336;2023-01-19T14:13:30;131.07;;;92.07;;
55330;SDS011;58851;42.984;20.336;2023-01-19T14:15:58;102.10;;;76.53;;
55330;SDS011;58851;42.984;20.336;2023-01-19T14:18:28;81.20;;;57.88;;
55330;SDS011;58851;42.984;20.336;2023-01-19T14:26:05;96.55;;;71.80;;
55330;SDS011;58851;42.984;20.336;2023-01-19T14:28:50;83.85;;;65.78;;
55330;SDS011;58851;42.984;20.336;2023-01-19T14:31:20;87.38;;;68.07;;
55330;SDS011;58851;42.984;20.336;2023-01-19T14:33:55;37.65;;;25.75;;
55330;SDS011;58851;42.984;20.336;2023-01-19T14:38:51;35.33;;;23.98;;
55330;SDS011;58851;42.984;20.336;2023-01-19T14:41:22;46.38;;;31.45;;
55330;SDS011;58851;42.984;20.336;2023-01-19T14:44:00;55.83;;;35.05;;
55330;SDS011;58851;42.984;20.336;2023-01-19T14:46:27;41.47;;;30.65;;
55330;SDS011;58851;42.984;20.336;2023-01-19T14:48:54;50.70;;;28.60;;
55330;SDS011;58851;42.984;20.336;2023-01-19T14:51:25;18.23;;;11.75;;
55330;SDS011;58851;42.984;20.336;2023-01-19T14:53:53;16.95;;;11.13;;
55330;SDS011;58851;42.984;20.336;2023-01-19T14:56:26;13.98;;;10.93;;
55330;SDS011;58851;42.984;20.336;2023-01-19T14:58:58;37.03;;;19.63;;
55330;SDS011;58851;42.984;20.336;2023-01-19T15:01:27;17.42;;;13.00;;
55330;SDS011;58851;42.984;20.336;2023-01-19T15:03:53;27.63;;;21.95;;
55330;SDS011;58851;42.984;20.336;2023-01-19T15:06:22;31.55;;;22.52;;
55330;SDS011;58851;42.984;20.336;2023-01-19T15:08:50;33.00;;;21.92;;
55330;SDS011;58851;42.984;20.336;2023-01-19T15:11:21;37.53;;;26.00;;
55330;SDS011;58851;42.984;20.336;2023-01-19T15:13:48;33.30;;;25.50;;
55330;SDS011;58851;42.984;20.336;2023-01-19T15:16:14;55.05;;;40.92;;
55330;SDS011;58851;42.984;20.336;2023-01-19T15:18:40;49.40;;;36.30;;
55330;SDS011;58851;42.984;20.336;2023-01-19T15:21:09;49.58;;;33.92;;
55330;SDS011;58851;42.984;20.336;2023-01-19T15:23:39;43.40;;;30.75;;
55330;SDS011;58851;42.984;20.336;2023-01-19T15:26:05;45.25;;;31.35;;
55330;SDS011;58851;42.984;20.336;2023-01-19T15:28:31;43.17;;;32.35;;
55330;SDS011;58851;42.984;20.336;2023-01-19T15:30:58;48.58;;;37.40;;
55330;SDS011;58851;42.984;20.336;2023-01-19T15:33:25;52.17;;;39.38;;
55330;SDS011;58851;42.984;20.336;2023-01-19T15:35:55;68.97;;;50.75;;
55330;SDS011;58851;42.984;20.336;2023-01-19T15:38:21;65.60;;;49.00;;
55330;SDS011;58851;42.984;20.336;2023-01-19T15:40:48;56.20;;;40.88;;
55330;SDS011;58851;42.984;20.336;2023-01-19T15:43:14;46.30;;;35.40;;
55330;SDS011;58851;42.984;20.336;2023-01-19T15:45:40;47.25;;;32.92;;
55330;SDS011;58851;42.984;20.336;2023-01-19T15:48:24;36.83;;;26.98;;
55330;SDS011;58851;42.984;20.336;2023-01-19T15:50:49;26.83;;;21.25;;
55330;SDS011;58851;42.984;20.336;2023-01-19T15:53:18;35.63;;;29.05;;
55330;SDS011;58851;42.984;20.336;2023-01-19T15:55:49;33.22;;;27.58;;
55330;SDS011;58851;42.984;20.336;2023-01-19T15:58:16;90.75;;;59.25;;
55330;SDS011;58851;42.984;20.336;2023-01-19T16:00:44;123.47;;;77.70;;